Time;durP1;ratioP1;P1;durP2;ratioP2;P2;SDS_P1;SDS_P2;PMS_P1;PMS_P2;Temp;Humidity;BMP_temperature;BMP_pressure;BME280_temperature;BME280_humidity;BME280_pressure;Samples;Min_cycle;Max_cycle;Signal;HPM_P1;HPM_P2
2021/11/21 00:08:54;;;;;;;5.93;4.40;;;;;;;;;;21177637;28;20044;-57
2021/11/21 00:18:57;;;;;;;8.23;4.10;;;;;;;;;;21177606;28;20572;-59
2021/11/21 00:28:59;;;;;;;6.30;4.78;;;;;;;;;;21176595;28;20180;-59
2021/11/21 00:39:01;;;;;;;7.38;4.30;;;;;;;;;;21176064;28;20048;-58
2021/11/21 00:49:07;;;;;;;6.72;4.03;;;;;;;;;;21174434;28;20047;-58
2021/11/21 00:59:10;;;;;;;8.73;4.78;;;;;;;;;;21172945;28;20047;-58
2021/11/21 01:09:12;;;;;;;9.75;5.40;;;;;;;;;;21172813;28;20104;-58
2021/11/21 01:19:14;;;;;;;11.88;5.97;;;;;;;;;;21171504;28;20498;-58
2021/11/21 01:29:16;;;;;;;8.57;5.35;;;;;;;;;;21171314;28;20051;-59
2021/11/21 01:39:18;;;;;;;9.10;6.05;;;;;;;;;;21170736;28;20116;-58
2021/11/21 01:49:21;;;;;;;10.00;5.97;;;;;;;;;;21169145;28;20123;-60
2021/11/21 01:59:23;;;;;;;9.93;6.65;;;;;;;;;;21168385;28;20385;-57
2021/11/21 02:09:27;;;;;;;9.73;5.35;;;;;;;;;;21166279;28;20407;-57
2021/11/21 02:19:33;;;;;;;8.48;5.55;;;;;;;;;;21166789;28;20415;-58
2021/11/21 02:29:37;;;;;;;9.17;5.80;;;;;;;;;;21165817;28;20052;-57
2021/11/21 02:39:42;;;;;;;11.18;4.68;;;;;;;;;;21165179;28;20090;-57
2021/11/21 02:49:48;;;;;;;8.35;5.22;;;;;;;;;;21163922;28;20054;-57
2021/11/21 02:59:55;;;;;;;8.73;5.43;;;;;;;;;;21163618;28;20066;-56
2021/11/21 03:10:07;;;;;;;9.70;5.53;;;;;;;;;;21163668;28;20048;-57
2021/11/21 03:20:16;;;;;;;7.75;5.47;;;;;;;;;;21162065;28;20094;-58
2021/11/21 03:30:27;;;;;;;9.65;5.03;;;;;;;;;;21161103;28;20406;-57
2021/11/21 03:40:33;;;;;;;9.20;5.00;;;;;;;;;;21162151;28;20130;-56
2021/11/21 03:50:38;;;;;;;9.73;5.17;;;;;;;;;;21161129;28;20131;-57
2021/11/21 04:01:00;;;;;;;9.18;5.75;;;;;;;;;;21161149;28;20050;-57
2021/11/21 04:11:21;;;;;;;9.88;5.90;;;;;;;;;;21162331;28;20048;-58
2021/11/21 04:21:43;;;;;;;8.43;5.60;;;;;;;;;;21159678;28;20500;-59
2021/11/21 04:32:01;;;;;;;8.55;6.03;;;;;;;;;;21166073;28;20071;-57
2021/11/21 04:42:20;;;;;;;9.40;6.43;;;;;;;;;;21175095;28;20048;-57
2021/11/21 04:52:40;;;;;;;9.23;5.97;;;;;;;;;;21173958;28;20051;-57
2021/11/21 05:03:01;;;;;;;10.68;6.43;;;;;;;;;;21173780;28;20055;-58
2021/11/21 05:13:15;;;;;;;13.48;6.40;;;;;;;;;;21173268;28;20067;-57
2021/11/21 05:23:30;;;;;;;10.77;7.10;;;;;;;;;;21172003;28;20047;-59
2021/11/21 05:33:38;;;;;;;12.50;6.90;;;;;;;;;;21171407;28;20055;-59
2021/11/21 05:43:47;;;;;;;10.95;8.13;;;;;;;;;;21170355;28;20055;-58
2021/11/21 05:53:53;;;;;;;12.52;6.90;;;;;;;;;;21169927;28;20047;-56
2021/11/21 06:04:00;;;;;;;11.07;6.88;;;;;;;;;;21169119;28;20480;-56
2021/11/21 06:14:04;;;;;;;9.68;6.03;;;;;;;;;;21168844;28;20044;-57
2021/11/21 06:24:07;;;;;;;8.35;6.07;;;;;;;;;;21168159;28;20048;-57
2021/11/21 06:34:10;;;;;;;9.35;6.00;;;;;;;;;;21166732;28;20052;-57
2021/11/21 06:44:14;;;;;;;13.33;6.07;;;;;;;;;;21166523;28;20054;-56
2021/11/21 06:54:17;;;;;;;6.55;5.20;;;;;;;;;;21164447;28;20067;-60
2021/11/21 07:04:22;;;;;;;10.13;6.80;;;;;;;;;;21164879;28;20109;-58
2021/11/21 07:14:27;;;;;;;11.63;7.70;;;;;;;;;;21163806;28;20415;-57
2021/11/21 07:24:31;;;;;;;13.05;7.82;;;;;;;;;;21163116;28;20135;-59
2021/11/21 07:34:34;;;;;;;14.90;8.23;;;;;;;;;;21162627;28;20044;-57
2021/11/21 07:44:40;;;;;;;16.80;9.90;;;;;;;;;;21162241;28;20050;-57
2021/11/21 07:54:45;;;;;;;13.88;7.53;;;;;;;;;;21161326;28;20473;-57
2021/11/21 08:04:49;;;;;;;13.95;8.05;;;;;;;;;;21166166;28;20070;-57
2021/11/21 08:14:51;;;;;;;11.93;9.20;;;;;;;;;;21177886;28;20051;-58
2021/11/21 08:24:54;;;;;;;11.27;7.20;;;;;;;;;;21176621;28;20047;-58
2021/11/21 08:34:57;;;;;;;9.07;6.63;;;;;;;;;;21176565;28;20047;-58
2021/11/21 08:44:59;;;;;;;14.82;8.05;;;;;;;;;;21175425;28;20048;-59
2021/11/21 08:55:05;;;;;;;12.65;7.75;;;;;;;;;;21174696;28;20047;-58
2021/11/21 09:05:08;;;;;;;10.98;7.85;;;;;;;;;;21173728;28;20063;-58
2021/11/21 09:15:14;;;;;;;11.95;8.18;;;;;;;;;;21172321;28;20094;-58
2021/11/21 09:25:19;;;;;;;15.60;9.68;;;;;;;;;;21172399;28;20492;-60
2021/11/21 09:35:22;;;;;;;17.27;10.38;;;;;;;;;;21170264;28;20148;-59
2021/11/21 09:45:26;;;;;;;15.33;10.67;;;;;;;;;;21171629;28;20472;-57
2021/11/21 09:55:29;;;;;;;13.05;10.88;;;;;;;;;;21169077;28;20051;-57
2021/11/21 10:05:35;;;;;;;16.85;11.07;;;;;;;;;;21167995;28;20094;-58
2021/11/21 10:15:38;;;;;;;11.52;8.85;;;;;;;;;;21167999;28;20059;-58
2021/11/21 10:25:45;;;;;;;16.95;10.45;;;;;;;;;;21165094;28;20048;-58
2021/11/21 10:35:53;;;;;;;15.68;9.77;;;;;;;;;;21165591;28;20052;-57
2021/11/21 10:45:57;;;;;;;15.20;11.65;;;;;;;;;;21165410;28;20043;-59
2021/11/21 10:56:19;;;;;;;15.83;11.03;;;;;;;;;;21164697;28;20138;-57
2021/11/21 11:06:27;;;;;;;14.25;11.63;;;;;;;;;;21164244;28;20043;-51
2021/11/21 11:16:30;;;;;;;11.48;8.18;;;;;;;;;;21162737;28;20404;-55
2021/11/21 11:26:35;;;;;;;12.27;7.90;;;;;;;;;;21163189;28;20044;-53
2021/11/21 11:36:39;;;;;;;9.18;5.78;;;;;;;;;;21162758;28;20051;-57
2021/11/21 11:46:44;;;;;;;10.10;5.33;;;;;;;;;;21172931;28;20061;-56
2021/11/21 11:56:49;;;;;;;14.60;5.30;;;;;;;;;;21190349;28;20048;-59
2021/11/21 12:06:55;;;;;;;10.60;5.25;;;;;;;;;;21190154;28;20051;-60
2021/11/21 12:17:02;;;;;;;6.30;4.25;;;;;;;;;;21190065;28;20449;-61
2021/11/21 12:27:18;;;;;;;10.05;5.53;;;;;;;;;;21187969;28;20515;-56
2021/11/21 12:37:26;;;;;;;7.60;4.65;;;;;;;;;;21188108;28;20127;-59
2021/11/21 12:47:32;;;;;;;6.45;4.22;;;;;;;;;;21170775;28;20044;-56
2021/11/21 12:57:47;;;;;;;8.75;4.63;;;;;;;;;;21174243;28;20043;-57
2021/11/21 13:07:49;;;;;;;6.53;4.32;;;;;;;;;;21172961;28;20104;-59
2021/11/21 13:18:09;;;;;;;6.63;3.78;;;;;;;;;;21172409;28;20047;-58
2021/11/21 13:28:28;;;;;;;11.23;4.60;;;;;;;;;;21155526;28;20055;-58
2021/11/21 13:38:32;;;;;;;11.10;5.82;;;;;;;;;;21171352;28;20415;-55
2021/11/21 13:48:39;;;;;;;6.18;4.82;;;;;;;;;;21170639;28;20056;-57
2021/11/21 13:58:42;;;;;;;9.27;5.05;;;;;;;;;;21169772;28;20138;-57
2021/11/21 14:08:52;;;;;;;12.88;6.38;;;;;;;;;;21168462;28;20090;-56
2021/11/21 14:18:55;;;;;;;7.88;4.22;;;;;;;;;;21149989;28;20108;-56
2021/11/21 14:29:00;;;;;;;10.17;7.10;;;;;;;;;;21166808;28;20157;-56
2021/11/21 14:39:13;;;;;;;5.27;3.33;;;;;;;;;;21165736;28;20453;-56
2021/11/21 14:49:17;;;;;;;;;;;;;;;;;;21165580;28;20468;-56
2021/11/21 14:59:19;;;;;;;4.03;3.33;;;;;;;;;;21165272;28;19924;-57
2021/11/21 15:09:22;;;;;;;4.20;2.65;;;;;;;;;;21164139;28;20092;-57
2021/11/21 15:19:24;;;;;;;4.72;2.63;;;;;;;;;;21162978;28;20069;-56
2021/11/21 15:29:26;;;;;;;6.00;2.40;;;;;;;;;;21162655;28;20058;-59
2021/11/21 15:39:32;;;;;;;6.40;3.17;;;;;;;;;;21162429;28;20479;-57
2021/11/21 15:49:37;;;;;;;8.43;3.38;;;;;;;;;;21162321;28;20079;-59
2021/11/21 15:59:39;;;;;;;5.90;4.07;;;;;;;;;;21161965;28;20077;-57
2021/11/21 16:09:42;;;;;;;6.80;3.60;;;;;;;;;;21160945;28;20055;-60
2021/11/21 16:19:45;;;;;;;6.93;4.07;;;;;;;;;;21160976;28;20469;-56
2021/11/21 16:29:48;;;;;;;6.22;4.57;;;;;;;;;;21169297;28;20058;-56
2021/11/21 16:39:50;;;;;;;8.18;4.35;;;;;;;;;;21175107;28;20087;-56
2021/11/21 16:49:55;;;;;;;10.43;4.70;;;;;;;;;;21155950;28;20101;-56
2021/11/21 16:59:58;;;;;;;9.85;6.05;;;;;;;;;;21174620;28;20056;-57
2021/11/21 17:10:01;;;;;;;10.88;6.38;;;;;;;;;;21155712;28;20043;-57
2021/11/21 17:20:06;;;;;;;11.18;7.45;;;;;;;;;;21171969;28;20048;-58
2021/11/21 17:30:09;;;;;;;10.45;7.70;;;;;;;;;;21170932;28;20092;-56
2021/11/21 17:40:15;;;;;;;13.77;7.60;;;;;;;;;;21171257;28;20047;-56
2021/11/21 17:50:18;;;;;;;11.45;8.10;;;;;;;;;;21151457;28;20051;-58
2021/11/21 18:00:21;;;;;;;16.60;9.18;;;;;;;;;;21168080;28;20048;-60
2021/11/21 18:10:24;;;;;;;16.20;10.45;;;;;;;;;;21168240;28;20116;-60
2021/11/21 18:20:27;;;;;;;18.00;10.23;;;;;;;;;;21167043;28;20047;-58
2021/11/21 18:30:30;;;;;;;15.50;9.77;;;;;;;;;;21165414;28;20112;-59
2021/11/21 18:40:32;;;;;;;15.07;9.57;;;;;;;;;;21164648;28;20116;-60
2021/11/21 18:50:36;;;;;;;15.32;9.98;;;;;;;;;;21145043;28;20047;-60
2021/11/21 19:00:43;;;;;;;13.82;10.32;;;;;;;;;;21163482;28;20055;-59
2021/11/21 19:10:45;;;;;;;19.98;12.55;;;;;;;;;;21163283;28;20476;-58
2021/11/21 19:20:47;;;;;;;22.90;14.70;;;;;;;;;;21163541;28;20480;-61
2021/11/21 19:30:50;;;;;;;18.42;13.32;;;;;;;;;;21144227;28;20070;-61
2021/11/21 19:40:52;;;;;;;19.83;13.32;;;;;;;;;;21162666;28;20059;-60
2021/11/21 19:50:55;;;;;;;21.00;15.43;;;;;;;;;;21161677;28;20048;-57
2021/11/21 20:00:57;;;;;;;21.15;14.43;;;;;;;;;;21167167;28;20047;-57
2021/11/21 20:10:59;;;;;;;18.95;14.77;;;;;;;;;;21177956;28;20040;-60
2021/11/21 20:21:01;;;;;;;24.00;14.95;;;;;;;;;;21176746;28;20200;-56
2021/11/21 20:31:10;;;;;;;21.17;15.32;;;;;;;;;;21175530;28;20100;-59
2021/11/21 20:41:13;;;;;;;21.70;15.20;;;;;;;;;;21175775;28;20055;-58
2021/11/21 20:51:15;;;;;;;54.42;29.50;;;;;;;;;;21174472;28;20101;-61
2021/11/21 21:01:19;;;;;;;28.70;19.55;;;;;;;;;;21174151;28;20130;-61
2021/11/21 21:11:21;;;;;;;21.75;14.82;;;;;;;;;;21154250;28;20087;-62
2021/11/21 21:21:23;;;;;;;21.77;15.18;;;;;;;;;;21172526;28;20126;-59
2021/11/21 21:31:26;;;;;;;21.23;15.00;;;;;;;;;;21171080;28;20048;-59
2021/11/21 21:41:28;;;;;;;18.75;13.80;;;;;;;;;;21170393;28;20055;-59
2021/11/21 21:51:31;;;;;;;21.75;16.27;;;;;;;;;;21151335;28;20535;-61
2021/11/21 22:01:34;;;;;;;22.52;16.02;;;;;;;;;;21169140;28;20059;-61
2021/11/21 22:11:36;;;;;;;24.88;16.23;;;;;;;;;;21168211;28;20123;-62
2021/11/21 22:21:38;;;;;;;19.88;15.38;;;;;;;;;;21167272;28;20063;-60
2021/11/21 22:31:40;;;;;;;20.10;14.85;;;;;;;;;;21166165;28;20044;-61
2021/11/21 22:41:43;;;;;;;22.08;14.98;;;;;;;;;;21166409;28;20491;-61
2021/11/21 22:51:45;;;;;;;35.90;20.02;;;;;;;;;;21165387;28;20047;-60
2021/11/21 23:01:48;;;;;;;20.67;16.13;;;;;;;;;;21164304;28;20062;-61
2021/11/21 23:11:51;;;;;;;24.70;18.27;;;;;;;;;;21164026;28;20070;-60
2021/11/21 23:21:53;;;;;;;22.92;16.48;;;;;;;;;;21162689;28;20048;-56
2021/11/21 23:31:57;;;;;;;20.60;14.45;;;;;;;;;;21224632;27;20108;-57
2021/11/21 23:41:59;;;;;;;20.73;14.02;;;;;;;;;;21246679;27;20051;-57
2021/11/21 23:52:01;;;;;;;20.17;14.52;;;;;;;;;;21246933;27;20040;-56
